Les Cèdres Heliport

CA-0914 · Quebec, 加拿大

使用的METAR站距离机场16 NM。
罗盘
风向 的 风向 160° 直升机
风: 8 kt, 3 beaufort
0 ft 6.000 12.000 18.000 24.000 30.000
Cloud Cloud
FEW 15.000
Cloud Cloud Cloud Cloud Cloud Cloud
BKN 25.000
METAR CYUL 231100Z 16008KT 30SM FEW150 BKN250 05/M03 A2999 RMK AC2CI5 SLP157

METAR Les Cèdres Heliport - CA-0914

Les Cèdres Heliport是,加拿大中的直升机场。 该机场位于纬度45,35000和经度-74,08300。 这个机场没有ICAO代码,我们使用CA-0914作为参考。 机场在Montreal FIR中。

该航空气象观测是针对蒙特利尔皮埃尔·埃利奥特·特鲁多国际机场在2024年4月23日 07:00, 当地时间进行的。

机场观察

风向为160°,速度为8 kt。

可见度为30 mi。

有几云在15.000 ft的高度 和 碎云在25.000 ft的高度。 破损或更高的上限为25.000 ft。

温度为5 °C,阵风为0 °C。 露点为-3 °C,相对湿度为57%。 海平面上的气压为29,99 inHg (QNH)。

白天

今天,太阳从05:55升起,在19:53降落。 这适用于Les Cèdres Heliport,世界夏令时可能有所不同。 当地时间与世界标准时间之间的时差为-4 小时。 夏令时目前正在进行中。

公司介绍

我们没有关于这个机场的公司信息。

体会

到Vliegles.nl去找飞行课程,跳伞和其他飞行体验。 浏览页面,了解Les Cèdres Heliport附近所有可用的活动。 你也可以使用搜索功能来寻找你所在地附近的特定飞行课程、跳伞或其他飞行体验。

乌云

15.000 ft FEW 几云
25.000 ft BKN 碎云

温度 & 天气

温度 5 °C
露点 -3 °C
相对湿度 57%
风寒 0 °C
Kp-index 2 (0-9)

评论

SLP157海平面压力为29,99 inHg (29,99 inHg)
AC2CI5

白天

日出
05:54
中午
12:53
日落
19:51 (12:17)

小工具

你想在你的网站上有一个关于Les Cèdres Heliport的当前航空天气(METAR)的小部件吗?

显示HTML代码
报告变更